createdAt,value
2023-02-06T00:02:25.672Z,87.10
2023-02-06T00:04:56.446Z,89.70
2023-02-06T00:07:27.320Z,86.60
2023-02-06T00:09:58.093Z,75.50
2023-02-06T00:12:28.949Z,91.80
2023-02-06T00:14:59.712Z,89.60
2023-02-06T00:17:30.508Z,93.60
2023-02-06T00:20:01.216Z,82.50
2023-02-06T00:22:31.978Z,89.30
2023-02-06T00:25:06.006Z,85.40
2023-02-06T00:27:36.850Z,70.90
2023-02-06T00:30:09.303Z,78.70
2023-02-06T00:32:40.080Z,82.50
2023-02-06T00:35:10.982Z,71.40
2023-02-06T00:37:44.697Z,64.60
2023-02-06T00:40:16.113Z,75.00
2023-02-06T00:42:47.311Z,71.40
2023-02-06T00:45:18.205Z,68.40
2023-02-06T00:47:48.929Z,72.00
2023-02-06T00:50:19.993Z,74.30
2023-02-06T00:52:50.899Z,76.90
2023-02-06T00:55:21.829Z,76.50
2023-02-06T00:57:52.771Z,74.40
2023-02-06T01:00:23.574Z,92.10
2023-02-06T01:02:54.340Z,76.00
2023-02-06T01:05:25.432Z,75.50
2023-02-06T01:07:56.769Z,88.00
2023-02-06T01:10:29.147Z,94.20
2023-02-06T01:12:59.918Z,79.30
2023-02-06T01:15:30.880Z,70.00
2023-02-06T01:18:02.698Z,76.10
2023-02-06T01:20:33.419Z,82.50
2023-02-06T01:23:04.176Z,72.70
2023-02-06T01:25:35.489Z,74.20
2023-02-06T01:28:06.786Z,77.20
2023-02-06T01:30:42.143Z,73.60
2023-02-06T01:33:13.344Z,80.70
2023-02-06T01:35:45.016Z,82.00
2023-02-06T01:38:16.949Z,84.90
2023-02-06T01:40:47.761Z,89.90
2023-02-06T01:43:20.145Z,83.50
2023-02-06T01:45:51.432Z,81.60
2023-02-06T01:48:31.580Z,82.50
2023-02-06T01:51:04.223Z,85.70
2023-02-06T01:53:37.234Z,74.30
2023-02-06T01:56:10.305Z,79.50
2023-02-06T01:58:44.000Z,74.70
2023-02-06T02:01:14.947Z,80.50
2023-02-06T02:03:48.186Z,82.30
2023-02-06T02:06:23.651Z,60.00
2023-02-06T02:08:58.448Z,67.20
2023-02-06T02:11:33.579Z,71.80
2023-02-06T02:14:06.957Z,83.30
2023-02-06T02:16:48.072Z,65.90
2023-02-06T02:20:00.438Z,88.00
2023-02-06T02:22:52.940Z,73.80
2023-02-06T02:25:49.138Z,69.90
2023-02-06T02:28:55.514Z,79.20
2023-02-06T02:34:55.583Z,76.50
2023-02-06T02:37:32.495Z,76.80
2023-02-06T02:40:10.889Z,71.60
2023-02-06T02:42:48.171Z,71.90
2023-02-06T02:45:25.062Z,76.60
2023-02-06T02:48:01.112Z,80.50
2023-02-06T02:50:32.449Z,72.60
2023-02-06T02:53:05.178Z,76.10
2023-02-06T02:55:36.281Z,76.60
2023-02-06T02:58:10.327Z,63.30
2023-02-06T03:00:45.886Z,73.00
2023-02-06T03:03:18.699Z,66.70
2023-02-06T03:06:05.178Z,78.20
2023-02-06T03:08:42.935Z,70.00
2023-02-06T03:11:17.025Z,75.30
2023-02-06T03:13:56.869Z,80.90
2023-02-06T03:16:35.140Z,74.40
2023-02-06T03:19:10.426Z,71.10
2023-02-06T03:21:44.538Z,82.60
2023-02-06T03:24:18.704Z,65.30
2023-02-06T03:26:52.251Z,81.30
2023-02-06T03:29:23.483Z,80.50
2023-02-06T03:31:57.861Z,66.60
2023-02-06T03:34:41.133Z,75.70
2023-02-06T03:37:12.983Z,87.30
2023-02-06T03:39:44.294Z,68.50
2023-02-06T03:42:18.391Z,75.00
2023-02-06T03:44:52.923Z,74.50
2023-02-06T03:47:25.489Z,71.60
2023-02-06T03:50:00.285Z,78.60
2023-02-06T03:55:08.516Z,71.90
2023-02-06T03:57:43.378Z,70.70
2023-02-06T04:00:16.631Z,69.50
2023-02-06T04:02:49.246Z,72.50
2023-02-06T04:05:21.425Z,71.70
2023-02-06T04:07:54.138Z,76.80
2023-02-06T04:10:26.379Z,83.60
2023-02-06T04:12:57.243Z,79.40
2023-02-06T04:15:28.207Z,77.80
2023-02-06T04:18:01.314Z,91.10
2023-02-06T04:20:32.892Z,75.50
2023-02-06T04:23:03.628Z,76.90
2023-02-06T04:25:34.502Z,86.70
2023-02-06T04:28:06.782Z,88.10
2023-02-06T04:30:37.923Z,97.90
2023-02-06T04:33:08.620Z,85.10
2023-02-06T04:35:39.302Z,92.20
2023-02-06T04:38:10.112Z,87.90
2023-02-06T04:40:40.780Z,86.30
2023-02-06T04:43:11.630Z,84.50
2023-02-06T04:45:42.989Z,87.40
2023-02-06T04:48:13.677Z,79.10
2023-02-06T04:50:44.765Z,88.90
2023-02-06T04:53:15.459Z,98.20
2023-02-06T04:55:46.185Z,81.20
2023-02-06T04:58:16.942Z,78.80
2023-02-06T05:00:48.009Z,80.40
2023-02-06T05:03:18.838Z,84.00
2023-02-06T05:05:52.034Z,81.40
2023-02-06T05:08:22.952Z,77.80
2023-02-06T05:10:53.967Z,78.60
2023-02-06T05:13:25.294Z,89.30
2023-02-06T05:15:58.126Z,87.50
2023-02-06T05:18:29.067Z,80.60
2023-02-06T05:21:00.010Z,88.30
2023-02-06T05:23:32.661Z,91.30
2023-02-06T05:26:04.236Z,87.20
2023-02-06T05:28:35.522Z,76.20
2023-02-06T05:31:07.291Z,75.30
2023-02-06T05:33:38.042Z,71.60
2023-02-06T05:36:11.315Z,73.90
2023-02-06T05:38:45.280Z,86.00
2023-02-06T05:41:16.669Z,78.60
2023-02-06T05:43:47.826Z,77.60
2023-02-06T05:46:19.501Z,77.00
2023-02-06T05:48:50.501Z,80.10
2023-02-06T05:51:29.220Z,53.00
2023-02-06T05:54:00.020Z,87.40
2023-02-06T05:56:31.259Z,76.60
2023-02-06T05:59:01.990Z,71.10
2023-02-06T06:01:33.896Z,73.40
2023-02-06T06:04:06.589Z,86.90
2023-02-06T06:06:37.610Z,67.00
2023-02-06T06:09:08.908Z,87.60
2023-02-06T06:11:39.766Z,78.90
2023-02-06T06:14:11.655Z,80.40
2023-02-06T06:16:42.955Z,79.90
2023-02-06T06:19:14.076Z,77.80
2023-02-06T06:21:45.412Z,72.80
2023-02-06T06:24:16.458Z,81.00
2023-02-06T06:26:47.692Z,73.50
2023-02-06T06:29:18.952Z,73.10
2023-02-06T06:31:54.746Z,81.40
2023-02-06T06:34:27.989Z,69.80
2023-02-06T06:36:59.130Z,69.50
2023-02-06T06:39:30.355Z,75.20
2023-02-06T06:42:04.550Z,81.10
2023-02-06T06:44:35.607Z,80.60
2023-02-06T06:47:06.586Z,75.10
2023-02-06T06:49:42.109Z,65.50
2023-02-06T06:52:24.086Z,69.60
2023-02-06T06:54:56.735Z,66.70
2023-02-06T06:57:28.064Z,70.70
2023-02-06T06:59:59.208Z,79.00
2023-02-06T07:02:30.287Z,72.70
2023-02-06T07:05:01.167Z,67.90
2023-02-06T07:07:32.812Z,73.90
2023-02-06T07:10:11.271Z,71.70
2023-02-06T07:12:42.114Z,68.70
2023-02-06T07:15:13.565Z,64.00
2023-02-06T07:17:44.254Z,63.80
2023-02-06T07:20:17.647Z,71.20
2023-02-06T07:22:51.328Z,64.70
2023-02-06T07:25:22.604Z,61.10
2023-02-06T07:27:54.681Z,65.40
2023-02-06T07:30:30.395Z,67.90
2023-02-06T07:33:01.577Z,59.70
2023-02-06T07:35:33.454Z,63.20
2023-02-06T07:38:04.595Z,52.40
2023-02-06T07:40:44.719Z,58.50
2023-02-06T07:43:16.714Z,54.90
2023-02-06T07:45:48.038Z,64.70
2023-02-06T07:48:18.878Z,58.60
2023-02-06T07:50:49.636Z,60.50
2023-02-06T07:53:20.535Z,65.70
2023-02-06T07:55:52.515Z,61.60
2023-02-06T07:58:23.321Z,53.20
2023-02-06T08:00:54.852Z,53.60
2023-02-06T08:03:25.561Z,61.80
2023-02-06T08:05:56.532Z,49.80
2023-02-06T08:08:27.313Z,50.70
2023-02-06T08:10:57.994Z,53.30
2023-02-06T08:13:28.628Z,59.50
2023-02-06T08:15:59.365Z,69.70
2023-02-06T08:18:30.058Z,69.90
2023-02-06T08:21:05.227Z,63.30
2023-02-06T08:23:36.587Z,51.20
2023-02-06T08:26:10.131Z,69.10
2023-02-06T08:28:42.464Z,69.10
2023-02-06T08:31:15.815Z,63.60
2023-02-06T08:33:47.694Z,67.60
2023-02-06T08:36:23.942Z,68.70
2023-02-06T08:38:55.059Z,58.90
2023-02-06T08:41:29.075Z,57.10
2023-02-06T08:44:02.692Z,53.90
2023-02-06T08:46:35.081Z,57.90
2023-02-06T08:49:07.712Z,52.20
2023-02-06T08:51:39.643Z,50.70
2023-02-06T08:54:13.167Z,47.90
2023-02-06T08:56:44.096Z,56.90
2023-02-06T08:59:16.201Z,52.40
2023-02-06T09:01:49.192Z,58.40
2023-02-06T09:04:20.176Z,52.00
2023-02-06T09:06:52.187Z,51.20
2023-02-06T09:09:23.174Z,53.10
2023-02-06T09:11:55.557Z,52.30
2023-02-06T09:14:26.662Z,55.70
2023-02-06T09:16:58.216Z,51.00
2023-02-06T09:19:29.399Z,48.40
2023-02-06T09:22:00.258Z,48.20
2023-02-06T09:24:32.329Z,44.10
2023-02-06T09:27:03.027Z,45.80
2023-02-06T09:29:34.212Z,43.60
2023-02-06T09:32:05.063Z,48.80
2023-02-06T09:34:36.304Z,46.70
2023-02-06T09:37:07.550Z,46.40
2023-02-06T09:39:38.671Z,45.40
2023-02-06T09:42:13.930Z,43.40
2023-02-06T09:44:49.226Z,39.10
2023-02-06T09:47:27.596Z,40.70
2023-02-06T09:50:02.894Z,40.30
2023-02-06T09:52:57.692Z,39.00
2023-02-06T09:55:36.340Z,38.40
2023-02-06T09:58:21.899Z,39.10
2023-02-06T10:03:52.179Z,45.30
2023-02-06T10:06:25.880Z,43.10
2023-02-06T10:09:02.770Z,44.00
2023-02-06T10:11:45.167Z,41.50
2023-02-06T10:14:22.475Z,41.40
2023-02-06T10:16:59.172Z,40.70
2023-02-06T10:19:41.267Z,41.90
2023-02-06T10:22:19.810Z,53.30
2023-02-06T10:25:04.659Z,53.70
2023-02-06T10:27:36.451Z,59.60
2023-02-06T10:30:08.283Z,66.10
2023-02-06T10:32:49.646Z,75.20
2023-02-06T10:35:31.235Z,72.60
2023-02-06T10:38:24.827Z,64.40
2023-02-06T10:41:00.425Z,65.00
2023-02-06T10:43:40.609Z,66.00
2023-02-06T10:46:26.014Z,63.30
2023-02-06T10:49:02.501Z,71.50
2023-02-06T10:51:37.053Z,67.30
2023-02-06T10:54:13.528Z,70.00
2023-02-06T10:56:46.293Z,68.60
2023-02-06T10:59:28.246Z,62.10
2023-02-06T11:02:17.451Z,59.10
2023-02-06T11:04:52.097Z,56.00
2023-02-06T11:07:28.697Z,54.40
2023-02-06T11:09:59.939Z,57.60
2023-02-06T11:12:36.830Z,57.10
2023-02-06T11:15:18.415Z,62.60
2023-02-06T11:17:49.433Z,59.30
2023-02-06T11:20:24.165Z,55.70
2023-02-06T11:22:55.202Z,58.20
2023-02-06T11:25:30.372Z,58.00
2023-02-06T11:30:40.716Z,63.00
2023-02-06T11:33:22.606Z,64.60
2023-02-06T11:35:55.814Z,61.80
2023-02-06T11:38:29.634Z,53.00
2023-02-06T11:41:03.190Z,54.40
2023-02-06T11:43:47.657Z,62.50
2023-02-06T11:46:21.606Z,78.10
2023-02-06T11:49:05.174Z,63.90
2023-02-06T11:51:52.733Z,65.00
2023-02-06T11:54:29.009Z,65.60
2023-02-06T11:57:04.393Z,60.70
2023-02-06T11:59:36.320Z,72.10
2023-02-06T12:02:29.074Z,61.60
2023-02-06T12:05:08.229Z,59.80
2023-02-06T12:07:43.456Z,67.90
2023-02-06T12:12:51.338Z,62.80
2023-02-06T12:15:45.816Z,69.50
2023-02-06T12:18:20.262Z,70.40
2023-02-06T12:20:54.360Z,65.20
2023-02-06T12:23:29.959Z,72.20
2023-02-06T12:26:04.845Z,70.70
2023-02-06T12:28:42.493Z,70.70
2023-02-06T12:31:20.430Z,65.60
2023-02-06T12:33:55.150Z,66.20
2023-02-06T12:36:39.999Z,71.80
2023-02-06T12:39:19.968Z,68.60
2023-02-06T12:42:02.909Z,79.70
2023-02-06T12:44:38.217Z,68.30
2023-02-06T12:47:15.647Z,66.40
2023-02-06T12:49:54.700Z,67.30
2023-02-06T12:52:31.018Z,64.40
2023-02-06T12:55:14.769Z,62.10
2023-02-06T12:57:46.254Z,60.80
2023-02-06T13:00:46.936Z,59.10
2023-02-06T13:03:28.336Z,57.00
2023-02-06T13:06:13.075Z,75.70
2023-02-06T13:08:56.071Z,57.80
2023-02-06T13:11:32.603Z,68.50
2023-02-06T13:14:07.614Z,61.10
2023-02-06T13:16:45.761Z,60.10
2023-02-06T13:19:32.371Z,71.10
2023-02-06T13:22:31.832Z,66.50
2023-02-06T13:25:37.460Z,74.10
2023-02-06T13:28:35.332Z,66.30
2023-02-06T13:31:08.325Z,80.00
2023-02-06T13:33:49.265Z,70.30
2023-02-06T13:36:29.274Z,69.20
2023-02-06T13:39:22.793Z,70.00
2023-02-06T13:41:54.417Z,75.90
2023-02-06T13:44:30.446Z,77.50
2023-02-06T13:47:45.927Z,72.80
2023-02-06T13:50:34.905Z,77.30
2023-02-06T13:53:21.554Z,94.10
2023-02-06T13:56:10.045Z,88.10
2023-02-06T13:58:45.724Z,99.00
2023-02-06T14:01:21.213Z,107.70
2023-02-06T14:03:55.140Z,118.90
2023-02-06T14:06:37.007Z,107.10
2023-02-06T14:09:30.690Z,120.90
2023-02-06T14:12:30.388Z,127.10
2023-02-06T14:15:12.685Z,123.40
2023-02-06T14:18:07.267Z,125.70
2023-02-06T14:20:50.553Z,129.00
2023-02-06T14:23:32.493Z,133.80
2023-02-06T14:26:19.297Z,131.50
2023-02-06T14:28:58.784Z,124.70
2023-02-06T14:31:49.360Z,135.90
2023-02-06T14:34:38.943Z,126.80
2023-02-06T14:37:36.273Z,127.30
2023-02-06T14:40:14.875Z,120.90
2023-02-06T14:42:47.464Z,134.30
2023-02-06T14:45:33.846Z,123.50
2023-02-06T14:48:22.637Z,135.50
2023-02-06T14:50:56.614Z,133.50
2023-02-06T14:53:30.778Z,132.50
2023-02-06T14:56:22.350Z,122.60
2023-02-06T14:58:53.166Z,125.40
2023-02-06T15:01:27.982Z,133.70
2023-02-06T15:04:13.709Z,150.90
2023-02-06T15:06:51.625Z,121.10
2023-02-06T15:09:31.015Z,122.70
2023-02-06T15:12:03.975Z,128.80
2023-02-06T15:14:36.136Z,129.80
2023-02-06T15:17:07.072Z,138.90
2023-02-06T15:19:37.848Z,133.80
2023-02-06T15:22:15.939Z,138.10
2023-02-06T15:25:01.131Z,144.30
2023-02-06T15:27:33.406Z,143.00
2023-02-06T15:30:18.253Z,153.20
2023-02-06T15:32:51.618Z,152.90
2023-02-06T15:35:24.736Z,155.10
2023-02-06T15:37:56.800Z,143.80
2023-02-06T15:40:32.067Z,136.80
2023-02-06T15:45:38.146Z,147.10
2023-02-06T15:50:42.293Z,130.40
2023-02-06T15:53:33.377Z,155.40
2023-02-06T15:56:07.590Z,155.80
2023-02-06T15:58:38.747Z,160.90
2023-02-06T16:01:17.586Z,159.00
2023-02-06T16:03:49.945Z,147.10
2023-02-06T16:06:20.792Z,170.60
2023-02-06T16:08:56.371Z,152.70
2023-02-06T16:11:51.121Z,161.90
2023-02-06T16:14:32.576Z,166.00
2023-02-06T16:17:06.726Z,150.50
2023-02-06T16:19:50.988Z,163.90
2023-02-06T16:22:27.449Z,164.90
2023-02-06T16:25:16.497Z,151.70
2023-02-06T16:27:48.644Z,148.40
2023-02-06T16:30:29.372Z,166.90
2023-02-06T16:33:09.525Z,161.70
2023-02-06T16:35:40.217Z,161.30
2023-02-06T16:38:12.903Z,167.70
2023-02-06T16:40:43.668Z,166.90
2023-02-06T16:43:14.636Z,148.60
2023-02-06T16:45:45.450Z,153.70
2023-02-06T16:48:18.518Z,164.40
2023-02-06T16:50:50.191Z,146.50
2023-02-06T16:53:24.426Z,148.40
2023-02-06T16:55:55.146Z,142.10
2023-02-06T16:58:28.612Z,136.10
2023-02-06T17:00:59.785Z,151.70
2023-02-06T17:03:32.611Z,146.00
2023-02-06T17:06:04.118Z,145.40
2023-02-06T17:08:39.399Z,145.60
2023-02-06T17:13:39.518Z,123.30
2023-02-06T17:16:16.121Z,123.50
2023-02-06T17:18:46.941Z,139.30
2023-02-06T17:21:20.016Z,136.60
2023-02-06T17:23:52.394Z,144.20
2023-02-06T17:26:24.799Z,140.50
2023-02-06T17:28:55.555Z,137.80
2023-02-06T17:31:26.381Z,146.30
2023-02-06T17:33:57.347Z,137.80
2023-02-06T17:36:32.397Z,131.70
2023-02-06T17:39:03.173Z,128.30
2023-02-06T17:41:34.217Z,133.30
2023-02-06T17:44:05.062Z,135.80
2023-02-06T17:46:35.902Z,133.00
2023-02-06T17:49:06.836Z,131.30
2023-02-06T17:51:37.497Z,131.70
2023-02-06T17:54:08.723Z,134.80
2023-02-06T17:56:39.912Z,134.10
2023-02-06T17:59:10.861Z,131.20
2023-02-06T18:01:42.569Z,122.00
2023-02-06T18:04:17.636Z,134.80
2023-02-06T18:06:48.831Z,131.20
2023-02-06T18:09:19.628Z,139.70
2023-02-06T18:11:50.331Z,125.00
2023-02-06T18:14:21.683Z,116.60
2023-02-06T18:16:52.389Z,127.10
2023-02-06T18:19:24.920Z,122.00
2023-02-06T18:21:55.963Z,123.50
2023-02-06T18:24:26.638Z,118.90
2023-02-06T18:26:57.454Z,134.20
2023-02-06T18:29:34.651Z,124.10
2023-02-06T18:32:14.899Z,127.70
2023-02-06T18:34:45.667Z,129.50
2023-02-06T18:37:16.852Z,117.40
2023-02-06T18:39:47.568Z,123.50
2023-02-06T18:42:35.919Z,128.30
2023-02-06T18:45:07.295Z,121.80
2023-02-06T18:47:39.126Z,121.50
2023-02-06T18:50:11.064Z,132.90
2023-02-06T18:52:41.816Z,120.90
2023-02-06T18:55:12.683Z,119.60
2023-02-06T18:57:43.620Z,121.80
2023-02-06T19:00:17.704Z,124.00
2023-02-06T19:02:48.812Z,109.90
2023-02-06T19:05:20.058Z,110.50
2023-02-06T19:07:52.735Z,104.30
2023-02-06T19:10:25.912Z,115.00
2023-02-06T19:12:56.608Z,106.90
2023-02-06T19:15:27.319Z,91.50
2023-02-06T19:17:59.418Z,96.20
2023-02-06T19:20:30.129Z,97.20
2023-02-06T19:23:00.857Z,106.80
2023-02-06T19:25:31.756Z,91.90
2023-02-06T19:28:02.427Z,100.50
2023-02-06T19:30:33.094Z,84.70
2023-02-06T19:33:03.808Z,95.70
2023-02-06T19:35:34.481Z,91.20
2023-02-06T19:38:05.206Z,88.10
2023-02-06T19:40:36.943Z,91.00
2023-02-06T19:43:07.944Z,103.20
2023-02-06T19:45:38.833Z,104.20
2023-02-06T19:48:12.262Z,88.30
2023-02-06T19:50:43.435Z,96.30
2023-02-06T19:53:16.914Z,103.50
2023-02-06T19:55:51.386Z,106.60
2023-02-06T19:58:22.049Z,100.30
2023-02-06T20:00:54.726Z,100.60
2023-02-06T20:03:25.946Z,103.70
2023-02-06T20:06:01.167Z,88.70
2023-02-06T20:11:04.539Z,94.70
2023-02-06T20:13:36.007Z,105.80
2023-02-06T20:16:07.843Z,90.20
2023-02-06T20:18:39.241Z,96.00
2023-02-06T20:21:22.301Z,90.10
2023-02-06T20:23:53.222Z,90.80
2023-02-06T20:26:26.656Z,88.80
2023-02-06T20:28:58.126Z,89.50
2023-02-06T20:31:29.795Z,101.30
2023-02-06T20:34:00.884Z,97.20
2023-02-06T20:36:31.700Z,100.20
2023-02-06T20:39:02.878Z,93.70
2023-02-06T20:41:34.769Z,99.10
2023-02-06T20:44:09.640Z,95.70
2023-02-06T20:46:40.511Z,96.60
2023-02-06T20:49:20.320Z,108.80
2023-02-06T20:51:51.689Z,87.40
2023-02-06T20:54:23.327Z,94.40
2023-02-06T20:56:54.515Z,100.90
2023-02-06T20:59:25.774Z,98.80
2023-02-06T21:01:56.764Z,102.10
2023-02-06T21:04:28.012Z,92.50
2023-02-06T21:06:59.382Z,92.20
2023-02-06T21:09:30.363Z,97.30
2023-02-06T21:12:01.076Z,94.10
2023-02-06T21:14:32.072Z,96.60
2023-02-06T21:17:02.797Z,87.50
2023-02-06T21:19:33.745Z,100.50
2023-02-06T21:22:04.715Z,100.50
2023-02-06T21:24:35.605Z,104.20
2023-02-06T21:27:06.440Z,82.20
2023-02-06T21:29:37.121Z,96.80
2023-02-06T21:32:14.083Z,84.70
2023-02-06T21:34:45.305Z,91.60
2023-02-06T21:37:16.076Z,95.00
2023-02-06T21:39:46.799Z,85.80
2023-02-06T21:42:20.590Z,90.40
2023-02-06T21:44:51.380Z,93.40
2023-02-06T21:47:22.174Z,95.30
2023-02-06T21:49:52.854Z,108.00
2023-02-06T21:52:23.533Z,90.70
2023-02-06T21:54:54.234Z,88.20
2023-02-06T21:57:25.072Z,110.50
2023-02-06T21:59:55.811Z,94.30
2023-02-06T22:02:26.644Z,101.30
2023-02-06T22:04:59.753Z,84.20
2023-02-06T22:07:30.588Z,93.10
2023-02-06T22:10:01.259Z,87.40
2023-02-06T22:12:32.433Z,94.50
2023-02-06T22:15:03.078Z,105.80
2023-02-06T22:17:34.827Z,93.50
2023-02-06T22:20:06.415Z,85.20
2023-02-06T22:22:38.899Z,100.70
2023-02-06T22:25:11.851Z,92.40
2023-02-06T22:27:43.795Z,97.10
2023-02-06T22:30:16.237Z,109.60
2023-02-06T22:32:46.966Z,112.60
2023-02-06T22:35:17.825Z,121.20
2023-02-06T22:37:48.518Z,108.80
2023-02-06T22:40:19.697Z,124.30
2023-02-06T22:42:50.416Z,123.10
2023-02-06T22:45:21.213Z,125.20
2023-02-06T22:47:51.883Z,131.20
2023-02-06T22:50:24.689Z,128.90
2023-02-06T22:53:13.107Z,132.50
2023-02-06T22:56:01.470Z,133.50
2023-02-06T22:58:32.681Z,120.40
2023-02-06T23:05:11.580Z,117.50
2023-02-06T23:07:42.488Z,121.70
2023-02-06T23:10:13.375Z,125.30
2023-02-06T23:12:44.062Z,126.70
2023-02-06T23:15:14.798Z,134.90
2023-02-06T23:17:45.862Z,107.20
2023-02-06T23:20:19.622Z,123.90
2023-02-06T23:22:50.281Z,120.70
2023-02-06T23:25:21.097Z,117.00
2023-02-06T23:27:51.782Z,113.20
2023-02-06T23:30:22.789Z,101.70
2023-02-06T23:32:53.469Z,109.80
2023-02-06T23:35:24.132Z,106.30
2023-02-06T23:37:55.147Z,106.80
2023-02-06T23:40:26.237Z,99.60
2023-02-06T23:42:56.936Z,100.90
2023-02-06T23:45:28.228Z,103.50
2023-02-06T23:47:59.361Z,108.50
2023-02-06T23:50:30.611Z,97.70
2023-02-06T23:53:01.278Z,101.60
2023-02-06T23:55:32.296Z,105.40
2023-02-06T23:58:03.003Z,103.10
